CDT,Max TemperatureF,Mean TemperatureF,Min TemperatureF,Max Dew PointF,MeanDew PointF,Min DewpointF,Max Humidity, Mean Humidity, Min Humidity, Max Sea Level PressureIn, Mean Sea Level PressureIn, Min Sea Level PressureIn, Max VisibilityMiles, Mean VisibilityMiles, Min VisibilityMiles, Max Wind SpeedMPH, Mean Wind SpeedMPH, Max Gust SpeedMPH,PrecipitationIn, CloudCover, Events, WindDirDegrees
2011-10-1,71,55,38,44,40,36,93,63,33,30.34,30.27,30.22,10,10,10,10,3,14,0.00,0,,115
2011-10-2,76,57,37,45,41,36,100,62,23,30.30,30.23,30.16,10,10,9,12,3,14,0.00,0,,183
2011-10-3,81,61,40,47,43,39,100,63,26,30.24,30.18,30.13,10,10,10,15,5,17,0.00,0,,143
2011-10-4,87,68,48,49,47,44,86,57,27,30.19,30.14,30.08,10,10,8,16,7,23,0.00,0,,168
2011-10-5,84,66,47,50,45,41,93,58,23,30.16,30.09,30.02,10,10,7,20,7,25,0.00,0,,161
2011-10-6,84,66,48,51,47,44,86,56,26,30.06,30.00,29.93,10,10,9,27,12,37,0.00,0,,156
2011-10-7,84,76,67,61,56,51,58,51,44,30.04,30.01,29.98,10,10,10,26,16,36,0.00,3,,169
2011-10-8,85,75,65,61,56,52,68,54,40,30.13,30.07,30.02,10,10,10,23,12,30,0.00,2,,158
2011-10-9,82,70,57,58,54,51,78,57,36,30.16,30.09,30.03,10,10,10,21,9,26,0.00,1,,139
2011-10-10,73,62,50,59,56,52,100,79,57,30.07,30.02,29.96,10,9,1,12,3,15,0.05,5,Rain,181
2011-10-11,79,64,49,58,53,48,100,69,38,29.98,29.92,29.78,10,3,0,14,5,18,0.00,3,Fog,169
2011-10-12,77,66,54,60,56,53,93,70,46,29.76,29.70,29.63,10,8,2,21,7,28,0.05,4,Rain,231
2011-10-13,75,61,47,51,43,34,86,55,23,29.85,29.80,29.76,10,10,10,25,8,33,0.00,0,,301
2011-10-14,67,56,45,43,35,30,80,54,28,30.06,29.96,29.84,10,8,1,23,8,29,0.00,1,,296
2011-10-15,73,55,37,44,36,28,85,55,24,30.12,30.00,29.82,10,10,10,20,6,24,0.00,0,,199
2011-10-16,67,55,42,52,43,34,89,62,34,30.05,29.94,29.75,10,10,8,25,8,31,0.00,0,,358
2011-10-17,59,50,40,43,39,33,96,70,43,30.05,30.02,29.97,10,10,9,15,5,20,0.02,3,Rain,50
2011-10-18,53,44,35,41,34,28,82,63,44,30.05,30.02,29.99,10,10,10,29,12,35,0.00,4,,341
2011-10-19,51,42,32,31,27,24,70,58,46,30.07,30.05,30.01,10,10,9,24,13,33,0.00,3,,344
2011-10-20,55,42,29,33,29,27,96,67,38,30.12,30.06,30.02,10,10,9,20,7,24,0.00,0,,321
2011-10-21,69,48,26,40,32,25,100,64,28,30.20,30.13,30.05,10,7,0,15,3,18,0.00,0,Fog,207
2011-10-22,71,53,35,45,40,33,92,65,37,30.14,30.08,30.02,10,10,8,10,2,14,T,2,,64
2011-10-23,77,59,41,47,45,39,100,67,33,30.02,29.97,29.89,10,10,5,14,4,20,0.00,1,,210
2011-10-24,82,61,39,51,42,37,93,58,23,30.15,30.03,29.90,10,10,10,20,8,24,0.00,0,,178
2011-10-25,83,68,52,55,50,42,67,51,34,29.92,29.78,29.67,10,10,10,26,18,35,0.00,0,,237
2011-10-26,60,52,44,41,38,36,76,60,44,30.09,30.04,29.96,10,10,10,23,13,29,0.00,3,,355
2011-10-27,58,44,30,38,31,24,89,59,28,30.21,30.14,30.09,10,10,10,15,6,18,T,2,,348
2011-10-28,61,44,27,34,28,23,100,64,27,30.24,30.20,30.16,10,10,10,21,6,30,0.00,0,,310
2011-10-29,67,47,26,32,29,25,100,61,22,30.19,30.05,29.91,10,10,10,21,8,28,0.00,0,,186
2011-10-30,61,51,40,37,30,24,60,43,25,30.09,30.01,29.90,10,10,10,24,12,32,0.00,2,,274
2011-10-31,68,46,23,38,29,21,88,57,25,30.14,30.06,29.98,10,10,10,13,4,16,0.00,0,,163